Time;durP1;ratioP1;P1;durP2;ratioP2;P2;SDS_P1;SDS_P2;PMS_P1;PMS_P2;Temp;Humidity;BMP_temperature;BMP_pressure;BME280_temperature;BME280_humidity;BME280_pressure;Samples;Min_cycle;Max_cycle;Signal;HPM_P1;HPM_P2
2023/12/08 00:01:35;;;;;;;3.20;0.90;;;6.20;87.40;;;;;;4902971;29;20203;-85
2023/12/08 00:04:04;;;;;;;1.33;1.23;;;6.20;87.60;;;;;;4905117;29;20229;-86
2023/12/08 00:06:34;;;;;;;1.60;1.13;;;6.20;87.60;;;;;;4899643;29;20758;-85
2023/12/08 00:09:03;;;;;;;1.40;0.90;;;6.20;87.30;;;;;;4900527;29;20206;-86
2023/12/08 00:11:32;;;;;;;0.60;0.60;;;6.20;87.40;;;;;;4908785;29;20202;-87
2023/12/08 00:14:01;;;;;;;1.40;1.07;;;6.30;87.50;;;;;;4903585;29;20226;-86
2023/12/08 00:16:30;;;;;;;0.63;0.63;;;6.30;87.50;;;;;;4903005;29;20438;-86
2023/12/08 00:18:59;;;;;;;2.20;1.10;;;6.20;87.30;;;;;;4910127;29;20206;-86
2023/12/08 00:21:27;;;;;;;1.10;0.97;;;6.30;87.50;;;;;;4899777;29;20258;-86
2023/12/08 00:23:57;;;;;;;0.63;0.63;;;6.20;87.40;;;;;;4904455;29;21235;-86
2023/12/08 00:26:26;;;;;;;1.43;1.30;;;6.20;87.40;;;;;;4900440;29;20230;-85
2023/12/08 00:28:54;;;;;;;0.40;0.40;;;6.20;87.40;;;;;;4902181;29;20196;-85
2023/12/08 00:31:23;;;;;;;1.67;1.57;;;6.20;87.40;;;;;;4902543;29;20199;-86
2023/12/08 00:33:52;;;;;;;2.27;2.07;;;6.20;87.40;;;;;;4906108;29;20231;-86
2023/12/08 00:36:22;;;;;;;1.03;0.93;;;6.20;88.30;;;;;;4894347;29;20208;-87
2023/12/08 00:38:51;;;;;;;0.97;0.93;;;6.20;87.40;;;;;;4898999;29;20196;-85
2023/12/08 00:41:22;;;;;;;0.60;0.60;;;6.20;87.50;;;;;;4904612;29;20241;-87
2023/12/08 00:43:51;;;;;;;0.97;0.97;;;6.20;87.50;;;;;;4897736;29;20226;-87
2023/12/08 00:46:19;;;;;;;0.87;0.87;;;6.30;87.60;;;;;;4903368;29;20217;-86
2023/12/08 00:48:48;;;;;;;0.70;0.70;;;6.30;87.70;;;;;;4900861;29;20208;-85
2023/12/08 00:51:17;;;;;;;2.87;1.03;;;6.30;87.80;;;;;;4901267;29;20213;-86
2023/12/08 00:53:45;;;;;;;1.93;1.83;;;6.30;87.70;;;;;;4900604;29;20202;-86
2023/12/08 00:56:14;;;;;;;1.03;1.00;;;6.30;87.80;;;;;;4895950;29;20319;-85
2023/12/08 00:58:44;;;;;;;1.53;1.43;;;6.30;87.80;;;;;;4907215;29;20196;-87
2023/12/08 01:01:12;;;;;;;1.00;1.00;;;6.30;87.80;;;;;;4902970;29;20223;-86
2023/12/08 01:03:41;;;;;;;1.33;1.27;;;6.30;87.70;;;;;;4899872;29;20199;-86
2023/12/08 01:06:10;;;;;;;3.67;1.57;;;6.40;87.80;;;;;;4899606;29;20255;-87
2023/12/08 01:08:38;;;;;;;0.90;0.90;;;6.40;87.80;;;;;;4904875;29;20556;-86
2023/12/08 01:11:08;;;;;;;1.37;1.27;;;6.40;87.90;;;;;;4905760;29;20207;-85
2023/12/08 01:13:37;;;;;;;1.37;1.33;;;6.40;87.70;;;;;;4901239;29;20726;-85
2023/12/08 01:16:08;;;;;;;3.73;1.33;;;6.40;87.80;;;;;;4900821;29;20258;-85
2023/12/08 01:18:37;;;;;;;2.30;1.20;;;6.40;87.80;;;;;;4906394;29;20199;-86
2023/12/08 01:21:06;;;;;;;0.60;0.60;;;6.40;87.70;;;;;;4902999;29;20224;-87
2023/12/08 01:23:35;;;;;;;0.63;0.63;;;6.40;87.60;;;;;;4906309;29;20678;-86
2023/12/08 01:26:07;;;;;;;1.50;1.40;;;6.40;87.70;;;;;;4907836;29;20231;-86
2023/12/08 01:28:36;;;;;;;1.17;1.03;;;6.40;87.70;;;;;;4907548;29;20200;-85
2023/12/08 01:31:06;;;;;;;2.00;1.80;;;6.50;87.80;;;;;;4905493;29;20199;-85
2023/12/08 01:33:35;;;;;;;1.35;1.25;;;6.50;87.70;;;;;;4901087;29;20458;-86
2023/12/08 01:36:03;;;;;;;2.73;1.47;;;6.50;87.70;;;;;;4907876;29;20205;-85
2023/12/08 01:38:52;;;;;;;1.50;1.07;;;6.50;87.70;;;;;;4904913;29;20203;-86
2023/12/08 01:41:20;;;;;;;1.03;1.03;;;6.50;87.70;;;;;;4900927;29;20231;-86
2023/12/08 01:43:49;;;;;;;0.57;0.57;;;6.50;87.60;;;;;;4911510;29;20231;-87
2023/12/08 01:46:21;;;;;;;1.83;1.47;;;6.60;87.60;;;;;;4899422;29;20215;-85
2023/12/08 01:48:51;;;;;;;2.20;1.63;;;6.60;87.60;;;;;;4903897;29;20713;-86
2023/12/08 01:51:21;;;;;;;0.57;0.57;;;6.60;87.60;;;;;;4906462;29;20296;-85
2023/12/08 01:53:51;;;;;;;1.43;1.33;;;6.60;87.60;;;;;;4902215;29;20210;-86
2023/12/08 01:56:19;;;;;;;0.60;0.60;;;6.60;87.40;;;;;;4897595;29;20293;-85
2023/12/08 01:58:48;;;;;;;0.70;0.70;;;6.60;87.40;;;;;;4910169;29;20291;-85
2023/12/08 02:01:19;;;;;;;0.93;0.93;;;6.60;87.30;;;;;;4898870;29;20228;-85
2023/12/08 02:03:50;;;;;;;0.60;0.60;;;6.60;87.20;;;;;;4892554;29;20220;-85
2023/12/08 02:06:19;;;;;;;1.53;1.43;;;6.60;87.00;;;;;;4896950;29;20624;-86
2023/12/08 02:08:48;;;;;;;1.00;1.00;;;6.60;87.00;;;;;;4895850;29;20206;-86
2023/12/08 02:11:18;;;;;;;2.07;1.97;;;6.60;86.90;;;;;;4903132;29;20682;-85
2023/12/08 02:13:46;;;;;;;2.20;1.20;;;6.60;86.90;;;;;;4907484;29;20203;-84
2023/12/08 02:16:22;;;;;;;3.13;1.77;;;6.60;86.90;;;;;;4898448;29;20209;-86
2023/12/08 02:18:52;;;;;;;1.23;1.13;;;6.60;87.00;;;;;;4902652;29;20220;-85
2023/12/08 02:21:21;;;;;;;0.63;0.63;;;6.60;87.00;;;;;;4900234;29;20721;-85
2023/12/08 02:23:51;;;;;;;2.10;1.50;;;6.70;87.10;;;;;;4904124;29;20210;-86
2023/12/08 02:26:20;;;;;;;5.40;1.47;;;6.70;87.00;;;;;;4908002;29;20263;-84
2023/12/08 02:28:49;;;;;;;0.60;0.60;;;6.70;87.00;;;;;;4898897;29;20665;-88
2023/12/08 02:31:23;;;;;;;0.50;0.50;;;6.70;86.80;;;;;;4899161;29;20207;-87
2023/12/08 02:33:53;;;;;;;1.23;1.17;;;6.70;86.90;;;;;;4897756;29;20212;-86
2023/12/08 02:36:22;;;;;;;1.20;1.10;;;6.70;86.90;;;;;;4900409;29;20203;-87
2023/12/08 02:38:53;;;;;;;1.97;1.87;;;6.70;86.80;;;;;;4911119;29;20210;-87
2023/12/08 02:41:22;;;;;;;0.50;0.50;;;6.70;86.70;;;;;;4908341;29;20235;-87
2023/12/08 02:43:51;;;;;;;0.47;0.47;;;6.70;86.70;;;;;;4912025;29;20684;-87
2023/12/08 02:46:19;;;;;;;0.77;0.77;;;6.70;86.60;;;;;;4909224;29;20200;-86
2023/12/08 02:48:48;;;;;;;1.17;1.17;;;6.70;86.60;;;;;;4906133;29;20196;-86
2023/12/08 02:51:22;;;;;;;0.57;0.57;;;6.70;86.60;;;;;;4906625;29;20207;-86
2023/12/08 02:53:52;;;;;;;1.53;1.43;;;6.70;86.50;;;;;;4898209;29;20196;-86
2023/12/08 02:56:21;;;;;;;4.00;1.30;;;6.70;86.50;;;;;;4908195;29;20206;-86
2023/12/08 02:58:51;;;;;;;1.73;1.37;;;6.70;86.40;;;;;;4901133;29;20633;-87
2023/12/08 03:01:20;;;;;;;0.80;0.70;;;6.70;86.50;;;;;;4903129;29;20315;-87
2023/12/08 03:03:49;;;;;;;3.20;2.47;;;6.70;87.30;;;;;;4910525;29;20237;-86
2023/12/08 03:06:18;;;;;;;1.30;1.13;;;6.70;86.50;;;;;;4904983;29;20211;-88
2023/12/08 03:08:48;;;;;;;1.00;0.90;;;6.70;86.50;;;;;;4910561;29;20243;-86
2023/12/08 03:11:18;;;;;;;1.00;1.00;;;6.70;86.40;;;;;;4905229;29;20673;-86
2023/12/08 03:13:47;;;;;;;1.63;1.20;;;6.70;86.40;;;;;;4905529;29;20196;-86
2023/12/08 03:16:16;;;;;;;0.83;0.83;;;6.70;86.70;;;;;;4903667;29;20627;-85
2023/12/08 03:18:44;;;;;;;1.57;1.47;;;6.70;86.30;;;;;;4908393;29;20239;-86
2023/12/08 03:21:21;;;;;;;0.80;0.80;;;6.70;86.30;;;;;;4902371;29;20271;-86
2023/12/08 03:23:50;;;;;;;1.10;1.03;;;6.70;86.30;;;;;;4902894;29;20199;-86
2023/12/08 03:26:20;;;;;;;1.27;1.20;;;6.60;86.30;;;;;;4908376;29;20239;-86
2023/12/08 03:28:49;;;;;;;1.13;1.10;;;6.60;86.20;;;;;;4902739;29;20207;-85
2023/12/08 03:31:24;;;;;;;3.63;2.07;;;6.60;86.30;;;;;;4897441;29;20540;-85
2023/12/08 03:33:53;;;;;;;1.90;1.67;;;6.60;86.30;;;;;;4904657;29;20309;-84
2023/12/08 03:36:22;;;;;;;2.63;1.27;;;6.60;86.40;;;;;;4892781;29;20562;-85
2023/12/08 03:38:50;;;;;;;4.43;1.60;;;6.60;86.40;;;;;;4809810;29;20280;-85
2023/12/08 03:41:21;;;;;;;1.23;1.23;;;6.60;86.40;;;;;;4828493;29;20227;-85
2023/12/08 03:44:03;;;;;;;1.73;1.63;;;6.60;86.40;;;;;;4832145;29;20553;-85
2023/12/08 03:49:14;;;;;;;3.60;2.87;;;6.60;86.50;;;;;;4837501;29;20218;-86
2023/12/08 03:51:43;;;;;;;0.57;0.57;;;6.60;86.40;;;;;;4832904;29;20286;-86
2023/12/08 03:54:11;;;;;;;0.90;0.90;;;6.60;86.40;;;;;;4828644;29;20216;-86
2023/12/08 03:56:41;;;;;;;0.97;0.97;;;6.70;86.60;;;;;;4835029;29;20243;-85
2023/12/08 03:59:10;;;;;;;0.67;0.67;;;6.70;86.50;;;;;;4835245;29;20246;-86
2023/12/08 04:01:39;;;;;;;1.53;1.43;;;6.70;86.50;;;;;;4832617;29;20317;-85
2023/12/08 04:04:10;;;;;;;1.37;1.27;;;6.70;86.40;;;;;;4831777;29;20213;-86
2023/12/08 04:06:52;;;;;;;3.90;1.63;;;6.70;86.40;;;;;;4835629;29;20231;-86
2023/12/08 04:09:20;;;;;;;1.73;1.63;;;6.70;86.40;;;;;;4833359;29;20650;-86
2023/12/08 04:11:50;;;;;;;1.63;0.93;;;6.70;86.30;;;;;;4829040;29;20650;-86
2023/12/08 04:14:19;;;;;;;0.83;0.83;;;6.70;86.30;;;;;;4831376;29;20214;-86
2023/12/08 04:16:48;;;;;;;0.80;0.80;;;6.70;86.30;;;;;;4837076;29;20628;-87
2023/12/08 04:19:18;;;;;;;0.83;0.83;;;6.70;86.40;;;;;;4829839;29;20301;-86
2023/12/08 04:21:47;;;;;;;1.40;1.10;;;6.70;86.40;;;;;;4831734;29;20222;-86
2023/12/08 04:24:15;;;;;;;6.17;1.17;;;6.70;86.40;;;;;;4833052;29;20203;-85
2023/12/08 04:26:44;;;;;;;0.87;0.87;;;6.80;86.30;;;;;;4834754;29;20233;-84
2023/12/08 04:29:15;;;;;;;1.63;1.53;;;6.70;86.10;;;;;;4834891;29;20266;-85
2023/12/08 04:31:43;;;;;;;1.13;1.07;;;6.70;86.10;;;;;;4829490;29;20293;-84
2023/12/08 04:34:12;;;;;;;1.33;1.27;;;6.70;86.10;;;;;;4830504;29;20221;-83
2023/12/08 04:36:41;;;;;;;1.33;1.17;;;6.70;86.10;;;;;;4829140;29;20292;-83
2023/12/08 04:39:12;;;;;;;0.93;0.93;;;6.70;86.10;;;;;;4826474;29;20264;-83
2023/12/08 04:41:41;;;;;;;1.80;1.20;;;6.70;86.10;;;;;;4830174;29;20233;-83
2023/12/08 04:44:09;;;;;;;0.90;0.90;;;6.80;86.20;;;;;;4822089;29;20215;-84
2023/12/08 04:46:39;;;;;;;3.60;1.27;;;6.80;86.20;;;;;;4822762;29;20245;-84
2023/12/08 04:49:08;;;;;;;1.57;1.47;;;6.80;86.20;;;;;;4830729;29;20688;-83
2023/12/08 04:51:39;;;;;;;1.93;1.83;;;6.80;86.30;;;;;;4830644;29;20211;-83
2023/12/08 04:54:07;;;;;;;1.23;1.13;;;6.70;86.10;;;;;;4829524;29;20214;-83
2023/12/08 04:56:36;;;;;;;1.70;1.52;;;6.70;86.00;;;;;;4827991;29;20462;-84
2023/12/08 04:59:05;;;;;;;3.13;1.40;;;6.70;86.60;;;;;;4829190;29;20214;-84
2023/12/08 05:01:34;;;;;;;1.73;1.40;;;6.70;87.30;;;;;;4830347;29;20214;-84
2023/12/08 05:04:04;;;;;;;1.80;1.70;;;6.70;86.50;;;;;;4832454;29;20320;-83
2023/12/08 05:06:33;;;;;;;3.60;2.40;;;6.70;86.40;;;;;;4826372;29;20210;-83
2023/12/08 05:09:02;;;;;;;1.10;1.10;;;6.70;86.40;;;;;;4831145;29;20283;-83
2023/12/08 05:11:31;;;;;;;0.80;0.80;;;6.70;86.40;;;;;;4829391;29;20217;-83
2023/12/08 05:14:00;;;;;;;3.13;2.93;;;6.70;86.40;;;;;;4832279;29;20209;-85
2023/12/08 05:16:28;;;;;;;5.67;2.13;;;6.70;86.40;;;;;;4831106;29;20218;-84
2023/12/08 05:18:57;;;;;;;1.13;1.13;;;6.60;86.40;;;;;;4836374;29;20328;-85
2023/12/08 05:21:27;;;;;;;1.87;1.70;;;6.70;86.40;;;;;;4824149;29;20203;-85
2023/12/08 05:23:55;;;;;;;3.00;1.60;;;6.60;86.40;;;;;;4829979;29;20235;-84
2023/12/08 05:26:25;;;;;;;1.60;1.50;;;6.60;86.50;;;;;;4824998;29;20641;-85
2023/12/08 05:28:53;;;;;;;1.83;1.73;;;6.60;86.60;;;;;;4826850;29;20263;-83
2023/12/08 05:31:22;;;;;;;3.70;2.65;;;6.60;86.60;;;;;;4817811;29;20460;-85
2023/12/08 05:33:50;;;;;;;1.30;1.00;;;6.60;86.70;;;;;;4828346;29;20210;-84
2023/12/08 05:36:19;;;;;;;2.13;1.77;;;6.60;86.70;;;;;;4823702;29;20214;-87
2023/12/08 05:38:49;;;;;;;2.63;2.43;;;6.60;86.70;;;;;;4828751;29;20237;-86
2023/12/08 05:41:18;;;;;;;2.83;2.63;;;6.60;86.70;;;;;;4822914;29;20635;-85
2023/12/08 05:43:47;;;;;;;2.40;1.70;;;6.60;86.60;;;;;;4830885;29;21026;-86
2023/12/08 05:46:15;;;;;;;2.13;1.33;;;6.50;86.90;;;;;;4820687;29;20199;-85
2023/12/08 05:48:44;;;;;;;3.13;2.27;;;6.60;87.10;;;;;;4818011;29;20216;-85
2023/12/08 05:51:12;;;;;;;4.10;2.30;;;6.50;86.90;;;;;;4828914;29;20233;-85
2023/12/08 05:53:41;;;;;;;3.30;2.03;;;6.50;86.90;;;;;;4820414;29;20216;-85
2023/12/08 05:56:12;;;;;;;2.37;2.20;;;6.50;86.90;;;;;;4826115;29;21623;-85
2023/12/08 05:58:41;;;;;;;2.23;2.07;;;6.50;86.90;;;;;;4826480;29;20313;-83
2023/12/08 06:01:13;;;;;;;6.70;2.10;;;6.50;86.90;;;;;;4824299;29;20290;-83
2023/12/08 06:03:41;;;;;;;2.67;2.47;;;6.60;86.90;;;;;;4833603;29;20281;-86
2023/12/08 06:06:10;;;;;;;2.30;1.85;;;6.60;86.90;;;;;;4830037;29;20452;-84
2023/12/08 06:08:38;;;;;;;4.93;2.27;;;6.60;87.00;;;;;;4829852;29;20222;-84
2023/12/08 06:11:07;;;;;;;2.03;1.87;;;6.60;87.10;;;;;;4835750;29;20611;-84
2023/12/08 06:13:37;;;;;;;2.03;1.83;;;6.60;87.10;;;;;;4833161;29;20213;-84
2023/12/08 06:16:06;;;;;;;0.77;0.77;;;6.60;87.00;;;;;;4837557;29;20266;-84
2023/12/08 06:18:35;;;;;;;2.70;2.10;;;6.60;86.90;;;;;;4834502;29;20225;-84
2023/12/08 06:21:04;;;;;;;1.23;1.03;;;6.60;86.90;;;;;;4836217;29;20206;-83
2023/12/08 06:23:32;;;;;;;3.37;2.03;;;6.60;87.00;;;;;;4833947;29;20323;-83
2023/12/08 06:26:01;;;;;;;1.43;1.33;;;6.70;87.00;;;;;;4828955;29;20245;-84
2023/12/08 06:28:30;;;;;;;2.30;1.60;;;6.70;86.90;;;;;;4824215;29;20665;-85
2023/12/08 06:30:59;;;;;;;2.17;1.92;;;6.70;86.90;;;;;;4832560;29;20868;-83
2023/12/08 06:33:28;;;;;;;2.57;2.37;;;6.70;87.10;;;;;;4840187;29;20217;-83
2023/12/08 06:35:57;;;;;;;0.90;0.90;;;6.80;87.20;;;;;;4827867;29;20207;-82
2023/12/08 06:38:26;;;;;;;4.77;2.60;;;6.80;87.10;;;;;;4832285;29;20214;-82
2023/12/08 06:40:55;;;;;;;0.70;0.70;;;6.90;87.10;;;;;;4839201;29;20199;-84
2023/12/08 06:43:24;;;;;;;1.70;1.33;;;6.90;86.90;;;;;;4840018;29;20237;-84
2023/12/08 06:45:53;;;;;;;1.07;1.07;;;6.90;86.70;;;;;;4830594;29;20572;-84
2023/12/08 06:48:23;;;;;;;1.67;1.57;;;6.90;86.70;;;;;;4827706;29;20209;-83
2023/12/08 06:50:52;;;;;;;3.23;1.50;;;7.00;86.70;;;;;;4831872;29;20235;-85
2023/12/08 06:53:21;;;;;;;3.47;2.17;;;7.00;86.60;;;;;;4831533;29;20231;-84
2023/12/08 06:55:49;;;;;;;0.97;0.97;;;7.00;86.40;;;;;;4837410;29;20213;-84
2023/12/08 06:58:18;;;;;;;2.20;1.27;;;7.10;86.40;;;;;;4837639;29;20350;-84
2023/12/08 07:00:47;;;;;;;2.23;1.97;;;7.10;86.30;;;;;;4826487;29;20207;-85
2023/12/08 07:03:16;;;;;;;1.93;1.70;;;7.10;86.30;;;;;;4829214;29;20235;-85
2023/12/08 07:05:45;;;;;;;1.57;0.80;;;7.10;86.10;;;;;;4837277;29;20237;-84
2023/12/08 07:08:16;;;;;;;1.53;1.43;;;7.10;86.30;;;;;;4838207;29;20563;-84
2023/12/08 07:10:45;;;;;;;2.07;1.70;;;7.20;86.20;;;;;;4829934;29;20588;-85
2023/12/08 07:13:13;;;;;;;0.97;0.93;;;7.20;86.10;;;;;;4828620;29;20298;-85
2023/12/08 07:15:42;;;;;;;0.97;0.97;;;7.20;86.10;;;;;;4836693;29;20208;-84
2023/12/08 07:18:11;;;;;;;2.13;1.93;;;7.20;86.00;;;;;;4834361;29;20215;-85
2023/12/08 07:20:40;;;;;;;2.57;2.37;;;7.30;85.90;;;;;;4830907;29;20210;-85
2023/12/08 07:26:06;;;;;;;1.17;1.07;;;7.30;85.80;;;;;;4826821;29;20254;-84
2023/12/08 07:28:35;;;;;;;2.63;1.83;;;7.30;85.70;;;;;;4834269;29;20687;-85
2023/12/08 07:31:04;;;;;;;3.00;2.57;;;7.30;85.50;;;;;;4835278;29;20221;-83
2023/12/08 07:33:46;;;;;;;2.17;1.80;;;7.30;85.40;;;;;;4830147;29;20737;-85
2023/12/08 07:36:15;;;;;;;2.23;2.03;;;7.30;85.40;;;;;;4835367;29;20211;-86
2023/12/08 07:38:45;;;;;;;2.57;2.07;;;7.30;85.30;;;;;;4833426;29;20259;-87
2023/12/08 07:41:15;;;;;;;2.90;2.57;;;7.20;85.00;;;;;;4838753;29;20246;-86
2023/12/08 07:43:43;;;;;;;1.27;1.17;;;7.20;84.80;;;;;;4832820;29;20234;-85
2023/12/08 07:46:12;;;;;;;1.57;1.40;;;7.20;85.00;;;;;;4837413;29;20679;-83
2023/12/08 07:48:40;;;;;;;2.60;2.40;;;7.20;85.00;;;;;;4832309;29;20203;-86
2023/12/08 07:51:09;;;;;;;3.47;2.53;;;7.20;85.10;;;;;;4831038;29;20203;-88
2023/12/08 07:53:38;;;;;;;2.70;2.23;;;7.20;85.30;;;;;;4837981;29;20217;-86
2023/12/08 07:56:09;;;;;;;3.00;2.77;;;7.20;85.30;;;;;;4839714;29;20249;-86
2023/12/08 07:58:37;;;;;;;2.67;2.30;;;7.30;85.30;;;;;;4836884;29;20215;-86
2023/12/08 08:01:06;;;;;;;6.10;2.23;;;7.30;85.30;;;;;;4835655;29;20670;-85
2023/12/08 08:03:35;;;;;;;3.47;2.63;;;7.30;85.00;;;;;;4831202;29;20696;-85
2023/12/08 08:06:04;;;;;;;2.40;2.23;;;7.30;85.10;;;;;;4831589;29;20676;-86
2023/12/08 08:08:34;;;;;;;1.87;1.77;;;7.30;85.20;;;;;;4831357;29;20673;-85
2023/12/08 08:14:02;;;;;;;4.40;2.43;;;7.30;85.10;;;;;;4827842;29;20208;-82
2023/12/08 08:16:40;;;;;;;4.27;0.97;;;7.30;85.20;;;;;;4831183;29;20755;-83
2023/12/08 08:19:09;;;;;;;1.63;1.53;;;7.30;85.30;;;;;;4832856;29;20217;-85
2023/12/08 08:21:51;;;;;;;0.97;0.83;;;7.40;85.30;;;;;;4830779;29;20259;-84
2023/12/08 08:27:22;;;;;;;2.40;2.20;;;7.40;83.90;;;;;;4834344;29;20249;-83
2023/12/08 08:29:53;;;;;;;2.17;2.07;;;7.40;83.70;;;;;;4833323;29;20234;-83
2023/12/08 08:32:21;;;;;;;2.90;2.43;;;7.40;84.10;;;;;;4832459;29;20553;-84
2023/12/08 08:34:50;;;;;;;3.13;2.83;;;7.40;84.30;;;;;;4829443;29;20221;-85
2023/12/08 08:37:22;;;;;;;2.13;2.00;;;7.50;84.50;;;;;;4828154;29;20215;-82
2023/12/08 08:39:52;;;;;;;2.00;1.80;;;7.50;84.70;;;;;;4832972;29;20208;-82
2023/12/08 08:42:20;;;;;;;3.03;1.87;;;7.60;84.70;;;;;;4834417;29;20210;-84
2023/12/08 08:45:05;;;;;;;3.63;2.97;;;7.60;84.60;;;;;;4837485;29;20618;-85
2023/12/08 08:47:34;;;;;;;1.27;1.20;;;7.70;84.60;;;;;;4837301;29;20220;-84
2023/12/08 08:50:03;;;;;;;3.43;3.03;;;7.70;84.60;;;;;;4839094;29;20213;-82
2023/12/08 08:52:34;;;;;;;4.37;2.60;;;7.70;84.00;;;;;;4838222;29;20236;-85
2023/12/08 08:55:04;;;;;;;4.40;2.47;;;7.70;83.50;;;;;;4833790;29;20673;-85
2023/12/08 09:00:18;;;;;;;3.60;3.10;;;7.70;83.70;;;;;;4835608;29;20207;-84
2023/12/08 09:05:43;;;;;;;2.53;1.80;;;7.60;83.00;;;;;;4830310;29;20233;-84
2023/12/08 09:08:11;;;;;;;4.20;3.57;;;7.60;83.30;;;;;;4838092;29;20275;-85
2023/12/08 09:10:44;;;;;;;3.77;2.63;;;7.60;83.20;;;;;;4834861;29;20202;-84
2023/12/08 09:13:14;;;;;;;2.07;1.97;;;7.60;83.30;;;;;;4834913;29;20214;-85
2023/12/08 09:15:44;;;;;;;16.20;3.73;;;7.70;83.40;;;;;;4836672;29;20673;-84
2023/12/08 09:18:12;;;;;;;3.50;1.60;;;7.70;83.50;;;;;;4835301;29;20305;-83
2023/12/08 09:20:43;;;;;;;2.60;2.40;;;7.70;83.70;;;;;;4836148;29;20210;-84
2023/12/08 09:23:12;;;;;;;3.50;2.73;;;7.70;83.60;;;;;;4827817;29;20210;-81
2023/12/08 09:25:41;;;;;;;5.27;2.73;;;7.70;83.70;;;;;;4827916;29;20248;-83
2023/12/08 09:28:09;;;;;;;1.83;1.73;;;7.70;83.30;;;;;;4829567;29;20593;-82
2023/12/08 09:30:38;;;;;;;2.67;2.47;;;7.70;84.10;;;;;;4837394;29;20297;-81
2023/12/08 09:33:09;;;;;;;4.53;2.70;;;7.70;83.60;;;;;;4838661;29;20209;-82
2023/12/08 09:35:38;;;;;;;3.87;2.87;;;7.70;83.30;;;;;;4832479;29;21095;-82
2023/12/08 09:38:06;;;;;;;2.43;2.23;;;7.70;83.50;;;;;;4832700;29;20213;-82
2023/12/08 09:40:44;;;;;;;5.30;3.30;;;7.70;83.60;;;;;;4840559;29;20209;-80
2023/12/08 09:43:19;;;;;;;3.00;2.73;;;7.80;83.70;;;;;;4839521;29;20206;-80
2023/12/08 09:45:49;;;;;;;2.47;2.27;;;7.80;83.20;;;;;;4838552;29;20241;-80
2023/12/08 09:48:20;;;;;;;3.50;3.20;;;7.70;82.50;;;;;;4829788;29;20624;-80
2023/12/08 09:50:51;;;;;;;4.80;2.90;;;7.70;82.70;;;;;;4835999;29;20229;-80
2023/12/08 09:53:20;;;;;;;3.37;2.10;;;7.70;82.80;;;;;;4837699;29;20211;-82
2023/12/08 09:55:49;;;;;;;6.00;3.70;;;7.70;83.00;;;;;;4844088;29;20201;-82
2023/12/08 09:58:18;;;;;;;9.07;2.70;;;7.70;82.50;;;;;;4837792;29;20226;-82
2023/12/08 10:00:49;;;;;;;2.87;2.67;;;7.70;82.50;;;;;;4834911;29;20203;-82
2023/12/08 10:03:19;;;;;;;3.73;3.17;;;7.70;82.70;;;;;;4835373;29;20280;-82
2023/12/08 10:05:48;;;;;;;3.27;2.07;;;7.70;82.80;;;;;;4838888;29;20283;-82
2023/12/08 10:08:17;;;;;;;4.70;2.60;;;7.70;82.90;;;;;;4835635;29;20224;-82
2023/12/08 10:10:45;;;;;;;3.10;2.80;;;7.70;83.10;;;;;;4830816;29;20293;-83
2023/12/08 10:13:15;;;;;;;3.53;2.70;;;7.70;83.10;;;;;;4835560;29;20210;-82
2023/12/08 10:15:44;;;;;;;3.50;2.47;;;7.70;83.30;;;;;;4838545;29;20202;-82
2023/12/08 10:18:25;;;;;;;3.97;2.33;;;7.70;83.00;;;;;;4831780;29;20207;-83
2023/12/08 10:21:12;;;;;;;3.93;3.63;;;7.70;83.10;;;;;;4828325;29;20219;-84
2023/12/08 10:23:42;;;;;;;5.67;2.73;;;7.70;83.10;;;;;;4836129;29;20223;-81
2023/12/08 10:26:12;;;;;;;6.80;2.60;;;7.60;83.00;;;;;;4834996;29;20270;-81
2023/12/08 10:28:43;;;;;;;14.47;4.43;;;7.50;83.10;;;;;;4835585;29;20546;-81
2023/12/08 10:31:11;;;;;;;6.37;2.23;;;7.50;83.20;;;;;;4837291;29;20203;-81
2023/12/08 10:33:42;;;;;;;5.87;3.80;;;7.50;83.30;;;;;;4835133;29;20198;-84
2023/12/08 10:36:11;;;;;;;7.03;4.30;;;7.50;83.60;;;;;;4837195;29;20251;-83
2023/12/08 10:38:41;;;;;;;3.33;3.03;;;7.50;83.70;;;;;;4841154;29;20202;-85
2023/12/08 10:41:11;;;;;;;5.73;3.33;;;7.40;83.40;;;;;;4841069;29;20202;-85
2023/12/08 10:43:40;;;;;;;7.27;3.10;;;7.40;83.60;;;;;;4840845;29;20285;-83
2023/12/08 10:46:09;;;;;;;1.90;1.53;;;7.40;83.80;;;;;;4837257;29;20233;-82
2023/12/08 10:48:39;;;;;;;2.13;1.70;;;7.40;83.90;;;;;;4833084;29;20226;-82
2023/12/08 10:51:13;;;;;;;14.23;2.27;;;7.40;84.10;;;;;;4840113;29;20206;-82
2023/12/08 10:53:44;;;;;;;3.20;2.47;;;7.40;84.10;;;;;;4838231;29;20567;-83
2023/12/08 10:56:16;;;;;;;6.03;3.20;;;7.40;84.00;;;;;;4841096;29;20198;-83
2023/12/08 10:58:51;;;;;;;4.30;3.83;;;7.40;84.10;;;;;;4837181;29;20627;-82
2023/12/08 11:01:20;;;;;;;4.87;3.60;;;7.40;83.80;;;;;;4833257;29;20820;-80
2023/12/08 11:03:56;;;;;;;3.17;2.77;;;7.40;83.80;;;;;;4836765;29;20206;-84
2023/12/08 11:06:41;;;;;;;5.83;3.53;;;7.50;84.00;;;;;;4839335;29;20226;-82
2023/12/08 11:09:13;;;;;;;3.73;2.83;;;7.50;83.90;;;;;;4836265;29;20640;-82
2023/12/08 11:11:50;;;;;;;2.40;2.03;;;7.40;83.80;;;;;;4838107;29;20218;-81
2023/12/08 11:14:33;;;;;;;2.13;1.67;;;7.50;83.90;;;;;;4838385;29;20217;-82
2023/12/08 11:17:06;;;;;;;1.97;1.57;;;7.50;83.90;;;;;;4834393;29;20214;-83
2023/12/08 11:19:35;;;;;;;2.80;2.57;;;7.50;84.00;;;;;;4836413;29;20261;-83
2023/12/08 11:22:06;;;;;;;1.67;1.43;;;7.60;84.30;;;;;;4834925;29;20211;-84
2023/12/08 11:24:36;;;;;;;3.87;3.27;;;7.60;84.30;;;;;;4836730;29;20218;-84
2023/12/08 11:27:10;;;;;;;2.47;2.27;;;7.70;84.40;;;;;;4829686;29;20238;-85
2023/12/08 11:29:48;;;;;;;2.20;2.10;;;7.70;84.30;;;;;;4832729;29;20293;-83
2023/12/08 11:32:22;;;;;;;2.00;1.90;;;7.80;84.30;;;;;;4827025;29;20211;-81
2023/12/08 11:34:56;;;;;;;3.60;2.40;;;7.90;83.90;;;;;;4837835;29;20210;-81
2023/12/08 11:37:28;;;;;;;4.27;2.33;;;7.90;83.80;;;;;;4839682;29;20221;-80
2023/12/08 11:40:01;;;;;;;3.60;1.43;;;8.00;83.70;;;;;;4840339;29;20237;-81
2023/12/08 11:42:30;;;;;;;4.90;3.07;;;8.00;83.60;;;;;;4835866;29;20253;-80
2023/12/08 11:44:58;;;;;;;6.13;3.60;;;8.10;83.40;;;;;;4830416;29;20206;-80
2023/12/08 11:47:27;;;;;;;3.27;2.93;;;8.10;83.20;;;;;;4833959;29;20268;-82
2023/12/08 11:49:56;;;;;;;4.33;3.47;;;8.10;82.90;;;;;;4840103;29;20198;-81
2023/12/08 11:52:29;;;;;;;2.83;2.63;;;8.20;83.10;;;;;;4833938;29;20908;-81
2023/12/08 11:55:03;;;;;;;4.33;3.37;;;8.20;82.80;;;;;;4835218;29;20198;-81
2023/12/08 11:57:43;;;;;;;2.87;2.63;;;8.20;82.70;;;;;;4838892;29;20238;-81
2023/12/08 12:00:13;;;;;;;2.53;1.93;;;8.20;82.70;;;;;;4834596;29;20213;-82
2023/12/08 12:02:42;;;;;;;6.23;4.43;;;8.20;82.30;;;;;;4838461;29;20206;-81
2023/12/08 12:05:11;;;;;;;2.47;2.30;;;8.20;82.30;;;;;;4837416;29;20297;-81
2023/12/08 12:07:45;;;;;;;2.50;2.30;;;8.20;83.20;;;;;;4837707;29;20592;-81
2023/12/08 12:10:14;;;;;;;3.03;2.80;;;8.20;82.30;;;;;;4842293;29;20262;-81
2023/12/08 12:12:45;;;;;;;2.60;2.40;;;8.10;82.10;;;;;;4835854;29;20798;-79
2023/12/08 12:15:19;;;;;;;3.60;2.43;;;8.10;82.20;;;;;;4831540;29;20200;-86
2023/12/08 12:17:48;;;;;;;1.60;1.50;;;8.10;82.40;;;;;;4832449;29;20691;-83
2023/12/08 12:20:17;;;;;;;3.90;2.43;;;8.10;82.20;;;;;;4836655;29;20207;-84
2023/12/08 12:22:47;;;;;;;4.17;2.43;;;8.10;82.30;;;;;;4830310;29;20207;-87
2023/12/08 12:25:16;;;;;;;3.60;2.40;;;8.10;82.30;;;;;;4827701;29;20289;-85
2023/12/08 12:27:46;;;;;;;10.00;4.60;;;8.10;82.40;;;;;;4828644;29;20239;-86
2023/12/08 12:30:16;;;;;;;2.13;2.00;;;8.10;82.40;;;;;;4828361;29;20218;-85
2023/12/08 12:32:45;;;;;;;2.80;2.60;;;8.10;82.40;;;;;;4833203;29;20230;-85
2023/12/08 12:35:14;;;;;;;5.97;3.87;;;8.10;82.20;;;;;;4835812;29;20211;-86
2023/12/08 12:37:44;;;;;;;3.07;2.83;;;8.10;82.30;;;;;;4830629;29;20209;-89
2023/12/08 12:40:14;;;;;;;7.07;3.27;;;8.10;82.30;;;;;;4840210;29;20206;-88
2023/12/08 12:42:44;;;;;;;2.23;2.13;;;8.10;82.20;;;;;;4829658;29;20302;-91
2023/12/08 12:45:27;;;;;;;2.97;2.73;;;8.00;82.30;;;;;;4834869;29;20261;-89
2023/12/08 12:48:07;;;;;;;4.47;3.83;;;8.00;82.40;;;;;;4831839;29;20320;-85
2023/12/08 12:50:46;;;;;;;1.97;1.60;;;8.00;82.30;;;;;;4835640;29;20309;-86
2023/12/08 12:53:15;;;;;;;6.47;2.97;;;7.90;82.40;;;;;;4840539;29;20214;-87
2023/12/08 12:55:45;;;;;;;2.57;2.30;;;7.90;82.50;;;;;;4834227;29;20206;-87
2023/12/08 12:58:21;;;;;;;4.17;3.47;;;7.90;82.50;;;;;;4832813;29;20319;-88
2023/12/08 13:00:50;;;;;;;3.43;2.60;;;7.90;82.50;;;;;;4831470;29;20202;-85
2023/12/08 13:03:20;;;;;;;3.80;3.50;;;7.80;82.40;;;;;;4837220;29;20213;-87
2023/12/08 13:05:53;;;;;;;1.77;1.67;;;7.80;82.40;;;;;;4833558;29;20207;-87
2023/12/08 13:08:22;;;;;;;5.33;2.80;;;7.70;82.40;;;;;;4837320;29;20226;-86
2023/12/08 13:10:54;;;;;;;4.10;3.03;;;7.70;82.50;;;;;;4836597;29;20593;-88
2023/12/08 13:13:23;;;;;;;8.70;4.20;;;7.60;82.50;;;;;;4831900;29;20214;-89
2023/12/08 13:15:51;;;;;;;2.97;2.70;;;7.60;82.60;;;;;;4829628;29;20217;-89
2023/12/08 13:18:20;;;;;;;5.20;3.27;;;7.60;82.70;;;;;;4837981;29;20661;-89
2023/12/08 13:20:48;;;;;;;1.53;1.43;;;7.50;82.80;;;;;;4832632;29;20203;-88
2023/12/08 13:23:17;;;;;;;1.63;1.53;;;7.50;82.80;;;;;;4840129;29;20297;-89
2023/12/08 13:25:46;;;;;;;2.87;2.17;;;7.40;83.10;;;;;;4848820;29;20313;-90
2023/12/08 13:28:17;;;;;;;1.33;1.23;;;7.40;83.00;;;;;;4843856;29;20313;-93
2023/12/08 13:30:45;;;;;;;2.47;2.37;;;7.40;83.10;;;;;;4846836;29;20694;-87